Time;durP1;ratioP1;P1;durP2;ratioP2;P2;SDS_P1;SDS_P2;PMS_P1;PMS_P2;Temp;Humidity;BMP_temperature;BMP_pressure;BME280_temperature;BME280_humidity;BME280_pressure;Samples;Min_cycle;Max_cycle;Signal;HPM_P1;HPM_P2
2023/01/24 00:00:55;;;;;;;25.52;14.88;;;3.00;99.90;;;;;;5074748;28;20072;-91
2023/01/24 00:03:25;;;;;;;22.02;14.50;;;3.00;99.90;;;;;;5071963;28;20047;-91
2023/01/24 00:05:51;;;;;;;27.95;16.38;;;3.10;99.90;;;;;;5073212;28;20050;-91
2023/01/24 00:08:19;;;;;;;22.50;15.10;;;3.00;99.90;;;;;;5070221;28;20040;-91
2023/01/24 00:10:46;;;;;;;24.48;15.73;;;3.00;99.90;;;;;;5087229;28;20075;-91
2023/01/24 00:13:13;;;;;;;21.58;15.23;;;3.00;99.90;;;;;;5068627;28;20044;-91
2023/01/24 00:15:40;;;;;;;27.27;16.05;;;3.00;99.90;;;;;;5091301;28;20513;-91
2023/01/24 00:18:05;;;;;;;22.85;14.80;;;3.10;99.90;;;;;;5090645;28;20457;-91
2023/01/24 00:20:32;;;;;;;24.08;14.98;;;3.00;99.90;;;;;;5072257;28;20068;-91
2023/01/24 00:22:57;;;;;;;27.98;15.70;;;3.00;99.90;;;;;;5104768;27;20206;-91
2023/01/24 00:25:23;;;;;;;24.95;15.10;;;3.00;99.90;;;;;;5079530;28;20206;-91
2023/01/24 00:27:49;;;;;;;26.20;16.38;;;3.00;99.90;;;;;;5069055;28;20136;-92
2023/01/24 00:30:15;;;;;;;25.35;16.35;;;3.10;99.90;;;;;;5086708;28;20507;-92
2023/01/24 00:32:44;;;;;;;26.70;15.57;;;3.00;99.90;;;;;;5091180;28;20044;-91
2023/01/24 00:35:10;;;;;;;27.38;16.13;;;3.00;99.90;;;;;;5069525;28;20076;-91
2023/01/24 00:37:36;;;;;;;26.00;15.77;;;3.00;99.90;;;;;;5102604;28;20067;-92
2023/01/24 00:40:01;;;;;;;24.70;15.40;;;3.10;99.90;;;;;;5067642;28;20064;-91
2023/01/24 00:42:27;;;;;;;24.63;15.75;;;3.10;99.90;;;;;;5086216;28;20035;-91
2023/01/24 00:44:53;;;;;;;24.45;15.65;;;3.00;99.90;;;;;;5092604;28;20454;-92
2023/01/24 00:47:21;;;;;;;29.40;17.55;;;3.10;99.90;;;;;;5086203;28;20380;-91
2023/01/24 00:49:50;;;;;;;28.38;16.67;;;3.00;99.90;;;;;;5095816;28;20048;-92
2023/01/24 00:52:15;;;;;;;27.15;17.02;;;3.00;99.90;;;;;;5067791;28;20491;-92
2023/01/24 00:54:41;;;;;;;27.27;16.55;;;3.10;99.90;;;;;;5073074;28;20028;-91
2023/01/24 00:57:07;;;;;;;27.27;16.35;;;3.00;99.90;;;;;;5068739;28;20127;-91
2023/01/24 00:59:32;;;;;;;28.15;15.68;;;3.00;99.90;;;;;;5091526;28;20448;-92
2023/01/24 01:01:58;;;;;;;26.88;16.17;;;3.10;99.90;;;;;;5071429;28;20127;-92
2023/01/24 01:04:24;;;;;;;27.98;16.90;;;3.00;99.90;;;;;;5065161;28;20184;-92
2023/01/24 01:06:52;;;;;;;26.52;17.88;;;3.10;99.90;;;;;;5071882;28;20036;-92
2023/01/24 01:09:18;;;;;;;25.20;15.70;;;2.90;99.90;;;;;;5095869;28;20362;-92
2023/01/24 01:11:43;;;;;;;25.10;16.17;;;3.00;99.90;;;;;;5073154;28;20051;-91
2023/01/24 01:14:09;;;;;;;27.23;16.50;;;3.00;99.90;;;;;;5069841;28;20127;-91
2023/01/24 01:16:38;;;;;;;26.95;15.80;;;3.00;99.90;;;;;;5069072;28;20066;-91
2023/01/24 01:19:05;;;;;;;28.77;17.13;;;2.90;99.90;;;;;;5089921;28;20040;-91
2023/01/24 01:21:33;;;;;;;27.58;17.45;;;3.10;99.90;;;;;;5071801;28;20555;-92
2023/01/24 01:24:02;;;;;;;24.92;16.52;;;2.90;99.90;;;;;;5070704;28;20032;-91
2023/01/24 01:26:31;;;;;;;28.13;16.80;;;3.00;99.90;;;;;;5084073;28;20031;-91
2023/01/24 01:28:57;;;;;;;30.15;18.02;;;3.00;99.90;;;;;;5070577;28;20028;-92
2023/01/24 01:31:22;;;;;;;25.27;16.55;;;3.00;99.90;;;;;;5067980;28;20062;-91
2023/01/24 01:33:48;;;;;;;30.60;18.45;;;3.00;99.90;;;;;;5080886;28;20452;-91
2023/01/24 01:36:14;;;;;;;28.48;17.88;;;3.00;99.90;;;;;;5083212;28;20122;-91
2023/01/24 01:38:42;;;;;;;30.45;18.33;;;3.00;99.90;;;;;;5066117;28;20082;-91
2023/01/24 01:41:11;;;;;;;27.00;17.17;;;3.00;99.90;;;;;;5069967;28;20077;-91
2023/01/24 01:44:37;;;;;;;30.25;18.52;;;3.00;99.90;;;;;;5087205;28;20047;-92
2023/01/24 01:46:26;;;;;;;28.50;17.25;;;3.00;99.90;;;;;;5086020;28;20502;-91
2023/01/24 01:48:56;;;;;;;29.92;18.00;;;2.90;99.90;;;;;;5102523;27;20119;-91
2023/01/24 01:51:27;;;;;;;29.73;17.38;;;3.00;99.90;;;;;;5065284;28;20070;-92
2023/01/24 01:54:46;;;;;;;30.38;18.48;;;2.90;99.90;;;;;;5069669;28;20039;-91
2023/01/24 01:57:16;;;;;;;29.00;17.67;;;3.00;99.90;;;;;;5079047;28;20093;-91
2023/01/24 02:00:24;;;;;;;30.30;17.85;;;3.10;99.90;;;;;;5069800;28;20035;-91
2023/01/24 02:05:50;;;;;;;29.23;17.70;;;3.10;99.90;;;;;;5081718;28;20548;-91
2023/01/24 02:08:21;;;;;;;28.90;17.10;;;3.00;99.90;;;;;;5090257;28;20437;-91
2023/01/24 02:13:35;;;;;;;30.00;19.15;;;2.90;99.90;;;;;;5087331;28;20159;-91
2023/01/24 02:16:04;;;;;;;33.63;20.30;;;3.00;99.90;;;;;;5069553;28;20099;-92
2023/01/24 02:18:36;;;;;;;31.45;19.23;;;3.10;99.90;;;;;;5069885;28;20498;-92
2023/01/24 02:21:04;;;;;;;29.73;17.55;;;3.10;99.90;;;;;;5085692;28;20036;-91
2023/01/24 02:23:48;;;;;;;29.58;17.98;;;3.10;99.90;;;;;;5079903;28;20139;-92
2023/01/24 02:26:21;;;;;;;31.67;18.67;;;3.00;99.90;;;;;;5063075;28;20078;-92
2023/01/24 02:29:02;;;;;;;29.98;17.65;;;3.10;99.90;;;;;;5088093;28;20075;-92
2023/01/24 02:31:28;;;;;;;30.58;18.77;;;3.10;99.90;;;;;;5068660;28;20408;-91
2023/01/24 02:33:54;;;;;;;32.15;19.58;;;3.00;99.90;;;;;;5068085;28;20040;-92
2023/01/24 02:36:31;;;;;;;33.35;20.38;;;3.10;99.90;;;;;;5104501;28;20048;-92
2023/01/24 02:39:06;;;;;;;34.75;18.98;;;3.10;99.90;;;;;;5094953;28;20040;-92
2023/01/24 02:41:40;;;;;;;33.90;18.85;;;3.00;99.90;;;;;;5085806;28;20044;-91
2023/01/24 02:44:10;;;;;;;32.40;19.73;;;3.10;99.90;;;;;;5083483;28;20114;-91
2023/01/24 02:46:37;;;;;;;32.42;18.92;;;2.90;99.90;;;;;;5097229;28;20040;-92
2023/01/24 02:49:07;;;;;;;31.65;18.25;;;3.10;99.90;;;;;;5080595;28;20410;-92
2023/01/24 02:54:17;;;;;;;31.00;18.90;;;3.10;99.90;;;;;;5084883;28;20518;-92
2023/01/24 02:59:27;;;;;;;29.95;18.45;;;3.00;99.90;;;;;;5088339;28;20036;-92
2023/01/24 03:01:53;;;;;;;29.42;16.63;;;2.90;99.90;;;;;;5081614;28;20101;-92
2023/01/24 03:04:19;;;;;;;27.77;16.52;;;3.00;99.90;;;;;;5085759;28;20036;-91
2023/01/24 03:06:44;;;;;;;24.67;15.35;;;3.00;99.90;;;;;;5083378;28;20040;-92
2023/01/24 03:09:19;;;;;;;24.38;15.50;;;3.00;99.90;;;;;;5065441;28;20463;-90
2023/01/24 03:11:49;;;;;;;28.70;17.40;;;3.10;99.90;;;;;;5062816;28;20112;-92
2023/01/24 03:36:19;;;;;;;33.00;17.92;;;3.10;99.90;;;;;;5086971;28;20040;-92
2023/01/24 03:41:32;;;;;;;30.70;17.98;;;3.10;99.90;;;;;;5088978;28;20044;-91
2023/01/24 03:43:58;;;;;;;26.90;17.73;;;3.10;99.90;;;;;;5072209;28;20058;-91
2023/01/24 03:46:23;;;;;;;30.00;17.85;;;3.10;99.90;;;;;;5073758;28;20051;-91
2023/01/24 03:48:52;;;;;;;27.90;16.88;;;3.00;99.90;;;;;;5089254;28;20101;-91
2023/01/24 03:54:02;;;;;;;25.23;16.20;;;3.00;99.90;;;;;;5107572;28;20505;-92
2023/01/24 03:56:28;;;;;;;27.15;16.83;;;3.00;99.90;;;;;;5082379;28;20044;-91
2023/01/24 03:58:54;;;;;;;26.13;16.38;;;3.00;99.90;;;;;;5082369;28;20517;-92
2023/01/24 04:01:20;;;;;;;28.05;17.45;;;3.00;99.90;;;;;;5084385;28;20165;-91
2023/01/24 04:03:46;;;;;;;29.05;16.83;;;3.10;99.90;;;;;;5083288;28;20095;-91
2023/01/24 04:06:11;;;;;;;24.95;16.55;;;3.00;99.90;;;;;;5068188;28;20056;-91
2023/01/24 04:08:37;;;;;;;26.40;16.80;;;3.10;99.90;;;;;;5087581;28;20058;-92
2023/01/24 04:11:03;;;;;;;25.58;16.38;;;3.00;99.90;;;;;;5070566;28;20040;-92
2023/01/24 04:13:29;;;;;;;24.65;16.35;;;3.00;99.90;;;;;;5102512;27;20046;-91
2023/01/24 04:15:54;;;;;;;26.45;15.98;;;3.00;99.90;;;;;;5087946;28;20905;-91
2023/01/24 04:18:23;;;;;;;24.77;15.18;;;3.00;99.90;;;;;;5082705;28;20130;-91
2023/01/24 04:20:48;;;;;;;24.75;16.20;;;3.00;99.90;;;;;;5080679;28;20038;-92
2023/01/24 04:23:14;;;;;;;23.30;15.93;;;3.00;99.90;;;;;;5081912;28;20036;-92
2023/01/24 04:25:40;;;;;;;25.40;16.00;;;3.00;99.90;;;;;;5066561;28;20043;-91
2023/01/24 04:28:05;;;;;;;22.83;15.35;;;3.00;99.90;;;;;;5066241;28;20155;-91
2023/01/24 04:30:31;;;;;;;24.80;15.77;;;3.00;99.90;;;;;;5063456;28;20044;-91
2023/01/24 04:32:57;;;;;;;24.45;15.65;;;3.00;99.90;;;;;;5068667;28;20051;-91
2023/01/24 04:35:25;;;;;;;24.60;15.68;;;3.00;99.90;;;;;;5068660;28;20534;-91
2023/01/24 04:37:51;;;;;;;22.52;15.45;;;3.00;99.90;;;;;;5081551;28;20109;-91
2023/01/24 04:40:17;;;;;;;21.90;15.05;;;2.90;99.90;;;;;;5062499;28;20137;-92
2023/01/24 04:42:43;;;;;;;23.10;14.73;;;2.90;99.90;;;;;;5067346;28;20042;-91
2023/01/24 04:45:10;;;;;;;23.13;14.48;;;2.90;99.90;;;;;;5080371;28;20040;-91
2023/01/24 04:47:36;;;;;;;23.35;15.10;;;2.90;99.90;;;;;;5088441;28;20055;-91
2023/01/24 04:50:02;;;;;;;23.50;15.23;;;2.90;99.90;;;;;;5069174;28;20044;-92
2023/01/24 04:52:28;;;;;;;23.20;15.25;;;2.90;99.90;;;;;;5080572;28;20039;-91
2023/01/24 04:54:54;;;;;;;23.52;15.70;;;2.90;99.90;;;;;;5083697;28;20049;-92
2023/01/24 04:57:20;;;;;;;23.17;15.60;;;2.90;99.90;;;;;;5088205;28;20571;-92
2023/01/24 04:59:45;;;;;;;24.08;16.17;;;2.90;99.90;;;;;;5084006;28;20089;-91
2023/01/24 05:02:11;;;;;;;22.92;15.25;;;2.90;99.90;;;;;;5086600;28;20036;-92
2023/01/24 05:04:37;;;;;;;22.15;14.68;;;3.00;99.90;;;;;;5066343;28;20340;-91
2023/01/24 05:07:03;;;;;;;23.08;15.05;;;3.00;99.90;;;;;;5064605;28;20040;-91
2023/01/24 05:09:28;;;;;;;25.02;15.60;;;2.90;99.90;;;;;;5079785;28;20154;-91
2023/01/24 05:11:54;;;;;;;24.05;16.02;;;2.90;99.90;;;;;;5082063;28;20047;-91
2023/01/24 05:14:20;;;;;;;23.23;14.68;;;2.90;99.90;;;;;;5065183;28;20052;-91
2023/01/24 05:16:46;;;;;;;24.52;16.23;;;2.90;99.90;;;;;;5067858;28;20369;-92
2023/01/24 05:19:12;;;;;;;24.75;16.02;;;2.90;99.90;;;;;;5082304;28;20035;-91
2023/01/24 05:21:37;;;;;;;24.38;16.50;;;2.90;99.90;;;;;;5064301;28;20119;-92
2023/01/24 05:24:03;;;;;;;25.05;15.88;;;3.00;99.90;;;;;;5067421;28;20051;-92
2023/01/24 05:26:29;;;;;;;26.30;17.23;;;2.90;99.90;;;;;;5081441;28;20040;-92
2023/01/24 05:28:55;;;;;;;26.48;16.85;;;2.90;99.90;;;;;;5079405;28;20119;-92
2023/01/24 05:31:21;;;;;;;26.65;16.85;;;2.90;99.90;;;;;;5085008;28;20050;-92
2023/01/24 05:33:49;;;;;;;25.00;15.73;;;2.90;99.90;;;;;;5067749;28;20071;-92
2023/01/24 05:36:18;;;;;;;27.55;16.90;;;2.90;99.90;;;;;;5080730;28;20126;-92
2023/01/24 05:38:44;;;;;;;22.52;16.02;;;2.90;99.90;;;;;;5095502;28;20503;-92
2023/01/24 05:41:12;;;;;;;24.27;16.35;;;2.90;99.90;;;;;;5097485;27;20431;-92
2023/01/24 05:43:40;;;;;;;26.17;16.63;;;2.90;99.90;;;;;;5071350;28;20067;-91
2023/01/24 05:46:09;;;;;;;26.67;16.17;;;2.90;99.90;;;;;;5087935;28;20539;-92
2023/01/24 05:48:35;;;;;;;24.98;16.88;;;2.90;99.90;;;;;;5080599;28;20040;-92
2023/01/24 05:51:12;;;;;;;26.70;16.75;;;2.80;99.90;;;;;;5081483;28;20495;-92
2023/01/24 05:53:39;;;;;;;22.90;15.50;;;2.80;99.90;;;;;;5063666;28;20047;-92
2023/01/24 05:56:17;;;;;;;29.30;16.20;;;2.80;99.90;;;;;;5080459;28;20037;-92
2023/01/24 05:58:44;;;;;;;26.13;16.27;;;2.90;99.90;;;;;;5078689;28;20051;-92
2023/01/24 06:01:16;;;;;;;26.13;16.23;;;2.90;99.90;;;;;;5112722;27;20039;-92
2023/01/24 06:03:43;;;;;;;24.52;15.50;;;2.90;99.90;;;;;;5089126;28;20204;-92
2023/01/24 06:06:11;;;;;;;25.65;15.75;;;2.90;99.90;;;;;;5061708;28;20067;-92
2023/01/24 06:08:38;;;;;;;24.23;16.40;;;2.90;99.90;;;;;;5066332;28;20142;-92
2023/01/24 06:11:09;;;;;;;22.80;15.52;;;2.90;99.90;;;;;;5086132;28;20040;-92
2023/01/24 06:13:35;;;;;;;23.67;15.75;;;2.80;99.90;;;;;;5065408;28;20472;-92
2023/01/24 06:16:07;;;;;;;19.83;14.43;;;2.80;99.90;;;;;;5080949;28;20740;-92
2023/01/24 06:18:33;;;;;;;21.63;13.85;;;2.80;99.90;;;;;;5081963;28;20040;-93
2023/01/24 06:21:05;;;;;;;22.88;14.15;;;2.80;99.90;;;;;;5062402;28;20039;-92
2023/01/24 06:23:31;;;;;;;20.65;13.23;;;2.80;99.90;;;;;;5096160;28;20078;-92
2023/01/24 06:25:57;;;;;;;20.08;12.82;;;2.80;99.90;;;;;;5062832;28;20044;-92
2023/01/24 06:28:25;;;;;;;20.70;14.18;;;2.80;99.90;;;;;;5065391;28;20112;-91
2023/01/24 06:31:25;;;;;;;22.00;13.95;;;2.90;99.90;;;;;;5078283;28;20059;-92
2023/01/24 06:34:08;;;;;;;19.35;13.15;;;2.80;99.90;;;;;;5086936;28;20723;-92
2023/01/24 06:37:10;;;;;;;22.75;14.43;;;2.80;99.90;;;;;;5110595;27;20074;-91
2023/01/24 06:39:37;;;;;;;20.67;13.77;;;2.80;99.90;;;;;;5053709;28;20036;-92
2023/01/24 06:42:04;;;;;;;23.98;14.05;;;2.80;99.90;;;;;;5078854;28;20079;-92
2023/01/24 06:44:30;;;;;;;21.50;13.55;;;2.80;99.90;;;;;;5063918;28;20135;-92
2023/01/24 06:46:55;;;;;;;21.27;13.10;;;2.80;99.90;;;;;;5081630;28;20130;-92
2023/01/24 06:49:21;;;;;;;21.70;14.02;;;2.80;99.90;;;;;;5065882;28;20114;-92
2023/01/24 06:51:51;;;;;;;19.90;13.23;;;2.80;99.90;;;;;;5067620;28;20035;-92
2023/01/24 06:54:18;;;;;;;21.92;14.15;;;2.80;99.90;;;;;;5062452;28;20124;-92
2023/01/24 06:56:43;;;;;;;20.73;13.88;;;2.80;99.90;;;;;;5062267;28;20127;-92
2023/01/24 06:59:09;;;;;;;19.50;13.25;;;2.80;99.90;;;;;;5078499;28;20116;-92
2023/01/24 07:01:35;;;;;;;20.45;13.80;;;2.80;99.90;;;;;;5083379;28;20044;-91
2023/01/24 07:04:00;;;;;;;22.23;14.18;;;2.80;99.90;;;;;;5076415;28;20038;-91
2023/01/24 07:06:26;;;;;;;28.40;13.95;;;2.80;99.90;;;;;;5096375;28;20044;-92
2023/01/24 07:08:52;;;;;;;19.70;13.65;;;2.80;99.90;;;;;;5061859;28;20047;-92
2023/01/24 07:11:18;;;;;;;19.30;12.63;;;2.70;99.90;;;;;;5084458;28;20039;-92
2023/01/24 07:13:44;;;;;;;17.88;13.00;;;2.80;99.90;;;;;;5064326;28;20079;-91
2023/01/24 07:16:10;;;;;;;20.42;12.65;;;2.70;99.90;;;;;;5085983;28;20131;-92
2023/01/24 07:18:36;;;;;;;19.67;12.45;;;2.70;99.90;;;;;;5104022;28;20130;-92
2023/01/24 07:21:07;;;;;;;18.25;12.55;;;2.70;99.90;;;;;;5084320;28;20047;-93
2023/01/24 07:23:34;;;;;;;18.95;12.10;;;2.70;99.90;;;;;;5080758;28;20040;-92
2023/01/24 07:26:03;;;;;;;20.20;12.48;;;2.70;99.90;;;;;;5080863;28;20478;-92
2023/01/24 07:28:29;;;;;;;17.92;12.35;;;2.70;99.90;;;;;;5066391;28;20126;-92
2023/01/24 07:30:55;;;;;;;19.05;12.57;;;2.70;99.90;;;;;;5083320;28;20046;-93
2023/01/24 07:33:21;;;;;;;20.23;12.52;;;2.70;99.90;;;;;;5068940;28;20050;-91
2023/01/24 07:35:47;;;;;;;22.42;13.75;;;2.70;99.90;;;;;;5080568;28;20039;-92
2023/01/24 07:38:13;;;;;;;19.55;13.13;;;2.70;99.90;;;;;;5064844;28;20620;-92
2023/01/24 07:40:39;;;;;;;19.80;12.52;;;2.80;99.90;;;;;;5080027;28;20075;-93
2023/01/24 07:43:05;;;;;;;21.55;14.13;;;2.70;99.90;;;;;;5082617;28;20100;-93
2023/01/24 07:45:32;;;;;;;23.10;15.57;;;2.70;99.90;;;;;;5080145;28;20127;-92
2023/01/24 07:47:58;;;;;;;21.00;14.40;;;2.70;99.90;;;;;;5068550;28;20040;-92
2023/01/24 07:50:26;;;;;;;20.63;13.77;;;2.80;99.90;;;;;;5097403;28;20067;-91
2023/01/24 07:52:52;;;;;;;21.00;13.10;;;2.80;99.90;;;;;;5082736;28;20039;-92
2023/01/24 07:55:19;;;;;;;19.60;13.20;;;2.80;99.90;;;;;;5082003;28;20044;-91
2023/01/24 07:57:44;;;;;;;20.67;14.05;;;2.80;99.90;;;;;;5097720;28;20090;-92
2023/01/24 08:00:14;;;;;;;21.23;13.82;;;2.80;99.90;;;;;;5062522;28;20032;-92
2023/01/24 08:02:41;;;;;;;20.45;13.68;;;2.80;99.90;;;;;;5067653;28;20066;-92
2023/01/24 08:05:07;;;;;;;18.35;12.88;;;2.80;99.90;;;;;;5065561;28;20049;-92
2023/01/24 08:07:33;;;;;;;21.23;14.45;;;2.90;99.90;;;;;;5062750;28;20035;-92
2023/01/24 08:09:59;;;;;;;22.08;13.70;;;2.90;99.90;;;;;;5083999;28;20545;-92
2023/01/24 08:12:24;;;;;;;20.55;13.95;;;2.90;99.90;;;;;;5082856;28;20036;-92
2023/01/24 08:14:53;;;;;;;18.67;13.57;;;2.90;99.90;;;;;;5080065;28;20421;-92
2023/01/24 08:17:19;;;;;;;21.13;13.15;;;2.80;99.90;;;;;;5082907;28;20359;-91
2023/01/24 08:19:45;;;;;;;19.10;13.60;;;2.90;99.90;;;;;;5067312;28;20046;-92
2023/01/24 08:22:10;;;;;;;20.15;13.48;;;2.90;99.90;;;;;;5083009;28;20036;-92
2023/01/24 08:24:36;;;;;;;20.75;13.80;;;2.80;99.90;;;;;;5064970;28;20403;-92
2023/01/24 08:27:02;;;;;;;19.63;13.27;;;2.80;99.90;;;;;;5066993;28;20399;-92
2023/01/24 08:29:29;;;;;;;21.75;14.40;;;2.80;99.90;;;;;;5069730;28;20040;-92
2023/01/24 08:31:58;;;;;;;20.00;14.20;;;2.80;99.90;;;;;;5064284;28;20067;-92
2023/01/24 08:34:24;;;;;;;21.77;14.32;;;2.80;99.90;;;;;;5063802;28;20158;-92
2023/01/24 08:36:50;;;;;;;19.83;13.93;;;2.90;99.90;;;;;;5066147;28;20028;-91
2023/01/24 08:39:16;;;;;;;19.83;14.57;;;2.90;99.90;;;;;;5066105;28;20403;-92
2023/01/24 08:41:46;;;;;;;20.33;14.57;;;2.80;99.90;;;;;;5080575;28;20071;-92
2023/01/24 08:44:15;;;;;;;19.40;14.25;;;2.90;99.90;;;;;;5067323;28;20043;-92
2023/01/24 08:46:41;;;;;;;21.55;14.57;;;2.90;99.90;;;;;;5083424;28;20024;-92
2023/01/24 08:49:09;;;;;;;23.08;14.95;;;2.90;99.90;;;;;;5067096;28;20206;-92
2023/01/24 08:51:34;;;;;;;21.25;14.80;;;2.90;99.90;;;;;;5061942;28;20067;-92
2023/01/24 08:54:00;;;;;;;23.38;15.13;;;2.90;99.90;;;;;;5089062;28;20063;-92
2023/01/24 08:56:29;;;;;;;23.20;15.20;;;3.00;99.90;;;;;;5081865;28;20517;-92
2023/01/24 08:58:54;;;;;;;22.90;15.13;;;3.00;99.90;;;;;;5081692;28;20265;-92
2023/01/24 09:01:20;;;;;;;22.50;15.85;;;3.00;99.90;;;;;;5064893;28;20036;-92
2023/01/24 09:03:49;;;;;;;22.75;15.93;;;3.00;99.90;;;;;;5064373;28;20040;-92
2023/01/24 09:06:14;;;;;;;22.58;15.63;;;3.00;99.90;;;;;;5098088;28;20039;-92
2023/01/24 09:08:40;;;;;;;23.40;16.88;;;3.00;99.90;;;;;;5081919;28;20035;-92
2023/01/24 09:11:09;;;;;;;24.95;17.73;;;3.00;99.90;;;;;;5080502;28;20395;-92
2023/01/24 09:13:34;;;;;;;24.80;18.15;;;3.00;99.90;;;;;;5061725;28;20306;-92
2023/01/24 09:16:00;;;;;;;25.15;18.67;;;3.00;99.90;;;;;;5062615;28;20048;-92
2023/01/24 09:18:26;;;;;;;24.48;17.70;;;3.00;99.90;;;;;;5083627;28;20482;-91
2023/01/24 09:20:52;;;;;;;25.52;18.35;;;3.00;99.90;;;;;;5064904;28;20102;-92
2023/01/24 09:23:17;;;;;;;26.77;18.50;;;3.00;99.90;;;;;;5085742;28;20070;-92
2023/01/24 09:25:50;;;;;;;26.45;19.00;;;3.00;99.90;;;;;;5065222;28;20055;-92
2023/01/24 09:28:19;;;;;;;25.67;17.83;;;3.00;99.90;;;;;;5082299;28;20390;-92
2023/01/24 09:30:47;;;;;;;26.48;18.83;;;3.10;99.90;;;;;;5083544;28;20366;-92
2023/01/24 09:33:13;;;;;;;23.98;17.13;;;3.10;99.90;;;;;;5063887;28;20123;-92
2023/01/24 09:36:00;;;;;;;25.15;18.17;;;3.10;99.90;;;;;;5154951;27;20658;-91
2023/01/24 09:38:28;;;;;;;24.38;18.40;;;3.10;99.90;;;;;;5121013;27;20046;-91
2023/01/24 09:41:03;;;;;;;28.25;18.40;;;3.20;99.90;;;;;;5137538;27;20035;-92
2023/01/24 09:43:56;;;;;;;25.83;17.73;;;3.20;99.90;;;;;;5120091;27;20054;-92
2023/01/24 09:46:27;;;;;;;26.10;18.48;;;3.20;99.90;;;;;;5119042;27;20510;-91
2023/01/24 09:49:00;;;;;;;24.88;18.38;;;3.10;99.90;;;;;;5120157;27;20039;-91
2023/01/24 09:51:30;;;;;;;25.50;18.48;;;3.20;99.90;;;;;;5135857;27;20535;-92
2023/01/24 09:54:02;;;;;;;23.05;17.77;;;3.20;99.90;;;;;;5117978;27;20034;-92
2023/01/24 09:56:40;;;;;;;26.77;19.17;;;3.20;99.90;;;;;;5137589;27;20031;-92
2023/01/24 09:59:21;;;;;;;23.10;17.38;;;3.20;99.90;;;;;;5117692;27;20031;-91
2023/01/24 10:01:51;;;;;;;24.90;17.55;;;3.30;99.90;;;;;;5118114;27;20209;-91
2023/01/24 10:04:21;;;;;;;22.67;17.17;;;3.20;99.90;;;;;;5126922;27;20035;-91
2023/01/24 10:07:13;;;;;;;25.67;17.33;;;3.20;99.90;;;;;;5136153;27;20292;-92
2023/01/24 10:10:18;;;;;;;23.60;16.27;;;3.30;99.90;;;;;;5118286;27;20475;-91
2023/01/24 10:12:48;;;;;;;23.42;17.35;;;3.20;99.90;;;;;;5116719;27;20393;-92
2023/01/24 10:15:44;;;;;;;23.13;17.02;;;3.30;99.90;;;;;;5134826;27;20053;-91
2023/01/24 10:18:37;;;;;;;24.23;17.20;;;3.30;99.90;;;;;;5142287;27;20035;-91
2023/01/24 10:21:29;;;;;;;24.85;18.30;;;3.40;99.90;;;;;;5121644;27;20043;-91
2023/01/24 10:24:01;;;;;;;23.08;17.05;;;3.40;99.90;;;;;;5122127;27;20239;-91
2023/01/24 10:26:42;;;;;;;24.08;16.95;;;3.30;99.90;;;;;;5120479;27;20521;-92
2023/01/24 10:29:35;;;;;;;22.05;16.60;;;3.30;99.90;;;;;;5118917;27;20066;-91
2023/01/24 10:32:14;;;;;;;22.13;15.50;;;3.40;99.90;;;;;;5119260;27;20034;-91
2023/01/24 10:34:43;;;;;;;24.10;16.08;;;3.30;99.90;;;;;;5119667;27;20058;-85
2023/01/24 10:37:09;;;;;;;22.40;15.85;;;3.40;99.90;;;;;;5139686;27;20140;-85
2023/01/24 10:39:38;;;;;;;21.60;16.00;;;3.40;99.90;;;;;;5117624;27;20141;-85
2023/01/24 10:42:24;;;;;;;22.25;16.38;;;3.40;99.90;;;;;;5112016;27;20038;-85
2023/01/24 10:44:51;;;;;;;22.48;16.02;;;3.40;99.90;;;;;;5130742;27;20042;-84
2023/01/24 10:47:36;;;;;;;19.45;14.95;;;3.40;99.90;;;;;;5106387;27;20427;-85
2023/01/24 10:50:06;;;;;;;22.20;15.70;;;3.40;99.90;;;;;;5101712;27;20184;-85
2023/01/24 10:52:33;;;;;;;21.15;15.73;;;3.40;99.90;;;;;;5120341;27;20065;-85
2023/01/24 10:55:01;;;;;;;22.73;15.95;;;3.50;99.90;;;;;;5105841;27;20068;-85
2023/01/24 10:57:43;;;;;;;22.42;15.82;;;3.50;99.90;;;;;;5103108;27;20221;-85
2023/01/24 11:00:14;;;;;;;22.27;15.75;;;3.50;99.90;;;;;;5097779;27;20473;-85
2023/01/24 11:02:42;;;;;;;21.80;15.48;;;3.50;99.90;;;;;;5122859;27;20061;-91
2023/01/24 11:05:12;;;;;;;20.42;15.15;;;3.50;99.90;;;;;;5105671;27;20374;-91
2023/01/24 11:07:43;;;;;;;21.17;15.70;;;3.50;99.90;;;;;;5123549;27;20264;-91
2023/01/24 11:10:23;;;;;;;21.50;16.00;;;3.60;99.90;;;;;;5132186;27;20102;-92
2023/01/24 11:12:57;;;;;;;22.58;16.63;;;3.60;99.90;;;;;;5107413;27;20418;-92
2023/01/24 11:15:32;;;;;;;21.02;16.50;;;3.70;99.90;;;;;;5124536;27;20490;-92
2023/01/24 11:34:50;;;;;;;21.98;15.70;;;3.70;99.90;;;;;;5143084;27;20073;-91
2023/01/24 11:37:53;;;;;;;23.60;16.63;;;3.70;99.90;;;;;;5122264;27;20534;-91
2023/01/24 11:40:54;;;;;;;22.45;16.90;;;3.60;99.90;;;;;;5128956;27;20092;-91
2023/01/24 11:43:49;;;;;;;24.25;17.58;;;3.60;99.90;;;;;;5099807;27;20073;-92
2023/01/24 11:46:52;;;;;;;22.83;16.53;;;3.70;99.90;;;;;;5124833;27;20033;-92
2023/01/24 11:49:36;;;;;;;23.83;17.40;;;3.70;99.90;;;;;;5104412;27;20340;-92
2023/01/24 11:52:43;;;;;;;24.10;17.48;;;3.80;99.90;;;;;;5106466;27;20076;-92
2023/01/24 11:55:25;;;;;;;24.17;17.38;;;3.80;99.90;;;;;;5115791;27;20404;-92
2023/01/24 11:58:28;;;;;;;24.80;18.10;;;3.80;99.90;;;;;;5106510;27;20717;-91
2023/01/24 12:01:14;;;;;;;24.90;17.85;;;3.90;99.90;;;;;;5104677;27;20525;-91
2023/01/24 12:04:01;;;;;;;27.30;18.02;;;3.80;99.90;;;;;;5118095;27;20042;-91
2023/01/24 12:06:41;;;;;;;25.20;17.42;;;3.90;99.90;;;;;;5125688;27;20039;-90
2023/01/24 12:09:25;;;;;;;25.35;18.25;;;3.80;99.90;;;;;;5122281;27;20450;-92
2023/01/24 12:11:56;;;;;;;22.75;17.38;;;3.80;99.90;;;;;;5106109;27;20175;-91
2023/01/24 12:14:53;;;;;;;24.08;17.75;;;3.70;99.90;;;;;;5120173;27;20031;-91
2023/01/24 12:17:45;;;;;;;26.17;18.83;;;3.70;99.90;;;;;;5104163;27;20125;-91
2023/01/24 12:20:25;;;;;;;27.77;18.13;;;3.60;99.90;;;;;;5108482;27;20134;-92
2023/01/24 12:22:56;;;;;;;26.45;18.67;;;3.60;99.90;;;;;;5126873;27;20038;-92
2023/01/24 12:25:32;;;;;;;24.25;18.15;;;3.70;99.90;;;;;;5108892;27;20038;-92
2023/01/24 12:28:04;;;;;;;25.75;18.65;;;3.70;99.90;;;;;;5122638;27;20043;-90
2023/01/24 12:30:37;;;;;;;25.42;17.77;;;3.60;99.90;;;;;;5106059;27;20074;-92
2023/01/24 12:33:21;;;;;;;22.27;16.65;;;3.70;99.90;;;;;;5103871;27;20030;-92
2023/01/24 12:35:51;;;;;;;24.35;17.98;;;3.60;99.90;;;;;;5102184;27;20039;-91
2023/01/24 12:38:35;;;;;;;24.85;17.23;;;3.70;99.90;;;;;;5126416;27;20485;-91
2023/01/24 12:41:06;;;;;;;25.02;16.90;;;3.60;99.90;;;;;;5104012;27;20038;-91
2023/01/24 12:43:58;;;;;;;25.50;16.45;;;3.70;99.90;;;;;;5106228;27;20042;-91
2023/01/24 12:46:42;;;;;;;21.75;15.98;;;3.60;99.90;;;;;;5119973;27;20054;-91
2023/01/24 12:49:31;;;;;;;21.95;16.52;;;3.70;99.90;;;;;;5102338;27;20033;-92
2023/01/24 12:52:08;;;;;;;24.60;17.25;;;3.80;99.90;;;;;;5103746;27;20027;-91
2023/01/24 12:54:50;;;;;;;25.50;17.95;;;3.80;99.90;;;;;;5105241;27;20034;-92
2023/01/24 12:57:40;;;;;;;22.48;16.63;;;3.80;99.90;;;;;;5107097;27;20560;-91
2023/01/24 13:00:19;;;;;;;22.75;16.48;;;3.70;99.90;;;;;;5123017;27;20035;-91
2023/01/24 13:03:04;;;;;;;24.52;16.98;;;3.70;99.90;;;;;;5101574;27;20043;-92
2023/01/24 13:05:53;;;;;;;23.67;17.02;;;3.70;99.90;;;;;;5105115;27;20485;-91
2023/01/24 13:08:38;;;;;;;24.92;17.00;;;3.80;99.90;;;;;;5103326;27;20050;-92
2023/01/24 13:11:09;;;;;;;23.60;17.23;;;3.60;99.90;;;;;;5116586;27;20085;-92
2023/01/24 13:13:54;;;;;;;23.15;16.67;;;3.70;99.90;;;;;;5104346;27;20042;-91
2023/01/24 13:16:40;;;;;;;22.50;16.40;;;3.60;99.90;;;;;;5100420;27;20100;-91
2023/01/24 13:19:08;;;;;;;23.90;16.38;;;3.50;99.90;;;;;;5105479;27;20039;-91
2023/01/24 13:21:47;;;;;;;27.42;18.63;;;3.60;99.90;;;;;;5101405;27;20504;-91
2023/01/24 13:24:12;;;;;;;25.00;17.58;;;3.50;99.90;;;;;;5106678;27;20062;-92
2023/01/24 13:26:56;;;;;;;27.10;18.23;;;3.60;99.90;;;;;;5100917;27;20199;-91
2023/01/24 13:30:09;;;;;;;26.55;19.15;;;3.60;99.90;;;;;;5119818;27;20043;-91
2023/01/24 13:32:38;;;;;;;25.20;18.20;;;3.60;99.90;;;;;;5105061;27;20051;-90
2023/01/24 13:35:22;;;;;;;24.20;17.73;;;3.50;99.90;;;;;;5106273;27;20422;-91
2023/01/24 13:37:54;;;;;;;24.92;18.27;;;3.50;99.90;;;;;;5105032;27;20043;-91
2023/01/24 13:40:30;;;;;;;26.60;18.73;;;3.50;99.90;;;;;;5101121;27;20054;-91
2023/01/24 13:42:57;;;;;;;26.70;18.23;;;3.50;99.90;;;;;;5103190;27;20515;-92
2023/01/24 13:45:25;;;;;;;26.48;16.75;;;3.50;99.90;;;;;;5106334;27;20039;-92
2023/01/24 13:47:53;;;;;;;24.27;18.17;;;3.50;99.90;;;;;;5100856;27;20165;-92
2023/01/24 13:50:25;;;;;;;24.95;18.20;;;3.60;99.90;;;;;;5101788;27;20035;-91
2023/01/24 13:52:59;;;;;;;25.77;18.00;;;3.50;99.90;;;;;;5102711;27;20906;-91